createdAt,value
2022-10-13T00:01:20.002Z,9.88
2022-10-13T00:03:48.792Z,9.00
2022-10-13T00:06:26.365Z,9.23
2022-10-13T00:08:55.066Z,8.07
2022-10-13T00:11:26.175Z,8.80
2022-10-13T00:13:57.572Z,8.88
2022-10-13T00:16:26.378Z,8.48
2022-10-13T00:18:54.137Z,8.65
2022-10-13T00:21:24.326Z,8.97
2022-10-13T00:23:53.581Z,8.85
2022-10-13T00:26:23.458Z,9.20
2022-10-13T00:28:53.125Z,9.27
2022-10-13T00:31:24.822Z,9.25
2022-10-13T00:33:53.387Z,8.83
2022-10-13T00:36:23.033Z,8.45
2022-10-13T00:38:51.651Z,8.75
2022-10-13T00:41:20.193Z,8.65
2022-10-13T00:43:58.406Z,9.27
2022-10-13T00:46:29.763Z,8.80
2022-10-13T00:49:01.146Z,8.85
2022-10-13T00:51:32.421Z,9.05
2022-10-13T00:54:03.087Z,8.75
2022-10-13T00:56:32.011Z,8.35
2022-10-13T00:59:00.959Z,8.00
2022-10-13T01:01:29.321Z,8.10
2022-10-13T01:03:57.180Z,7.97
2022-10-13T01:06:25.229Z,8.32
2022-10-13T01:08:55.047Z,7.78
2022-10-13T01:11:47.721Z,8.33
2022-10-13T01:14:33.361Z,7.60
2022-10-13T01:17:06.972Z,8.38
2022-10-13T01:20:04.407Z,8.20
2022-10-13T01:22:38.209Z,8.20
2022-10-13T01:25:30.399Z,8.67
2022-10-13T01:28:31.268Z,8.45
2022-10-13T01:31:07.661Z,8.20
2022-10-13T01:34:01.725Z,8.88
2022-10-13T01:37:09.734Z,8.35
2022-10-13T01:39:40.257Z,8.97
2022-10-13T01:42:22.696Z,9.70
2022-10-13T01:44:55.239Z,10.10
2022-10-13T01:47:25.843Z,9.02
2022-10-13T01:49:55.596Z,11.00
2022-10-13T01:52:26.705Z,10.00
2022-10-13T01:54:55.206Z,9.52
2022-10-13T01:57:39.973Z,9.23
2022-10-13T02:00:10.506Z,9.30
2022-10-13T02:02:50.282Z,9.70
2022-10-13T02:05:40.150Z,8.93
2022-10-13T02:08:23.891Z,8.38
2022-10-13T02:11:22.007Z,8.45
2022-10-13T02:14:13.994Z,8.23
2022-10-13T02:16:44.705Z,8.50
2022-10-13T02:19:16.549Z,8.53
2022-10-13T02:21:45.486Z,8.13
2022-10-13T02:24:14.006Z,8.60
2022-10-13T02:26:42.434Z,8.05
2022-10-13T02:29:16.930Z,9.95
2022-10-13T02:31:46.009Z,9.77
2022-10-13T02:34:15.064Z,9.50
2022-10-13T02:36:48.074Z,10.73
2022-10-13T02:39:16.264Z,10.85
2022-10-13T02:41:44.207Z,11.88
2022-10-13T02:44:12.123Z,10.47
2022-10-13T02:46:42.910Z,11.80
2022-10-13T02:49:11.179Z,12.63
2022-10-13T02:51:40.352Z,11.55
2022-10-13T02:54:08.715Z,12.68
2022-10-13T02:56:36.388Z,11.90
2022-10-13T02:59:04.443Z,11.63
2022-10-13T03:01:33.165Z,11.40
2022-10-13T03:04:01.188Z,11.98
2022-10-13T03:06:29.047Z,10.82
2022-10-13T03:08:57.184Z,10.93
2022-10-13T03:11:24.959Z,10.55
2022-10-13T03:13:52.865Z,11.43
2022-10-13T03:16:21.352Z,10.82
2022-10-13T03:18:49.140Z,10.82
2022-10-13T03:21:16.826Z,10.13
2022-10-13T03:23:44.978Z,11.63
2022-10-13T03:26:12.603Z,11.57
2022-10-13T03:28:41.132Z,11.90
2022-10-13T03:31:11.993Z,20.92
2022-10-13T03:33:41.051Z,17.23
2022-10-13T03:36:09.008Z,17.15
2022-10-13T03:38:37.308Z,12.95
2022-10-13T03:41:11.213Z,13.38
2022-10-13T03:43:39.742Z,11.73
2022-10-13T03:46:08.511Z,11.50
2022-10-13T03:48:37.386Z,12.38
2022-10-13T03:51:17.395Z,12.90
2022-10-13T03:53:51.129Z,13.10
2022-10-13T03:56:22.673Z,12.38
2022-10-13T03:58:54.826Z,14.13
2022-10-13T04:01:26.385Z,13.98
2022-10-13T04:03:56.292Z,15.52
2022-10-13T04:06:25.674Z,15.02
2022-10-13T04:08:54.231Z,16.10
2022-10-13T04:11:22.575Z,15.83
2022-10-13T04:13:57.874Z,15.95
2022-10-13T04:16:28.393Z,16.70
2022-10-13T04:19:04.116Z,16.88
2022-10-13T04:21:34.020Z,17.98
2022-10-13T04:24:02.949Z,15.50
2022-10-13T04:26:34.906Z,16.55
2022-10-13T04:29:09.132Z,16.98
2022-10-13T04:31:37.514Z,16.67
2022-10-13T04:34:05.578Z,16.83
2022-10-13T04:36:33.617Z,17.03
2022-10-13T04:39:01.354Z,54.67
2022-10-13T04:41:29.421Z,43.53
2022-10-13T04:43:57.150Z,35.45
2022-10-13T04:46:27.157Z,20.83
2022-10-13T04:48:58.013Z,19.33
2022-10-13T04:51:33.590Z,29.42
2022-10-13T04:54:02.592Z,28.27
2022-10-13T04:56:30.238Z,28.20
2022-10-13T04:59:06.191Z,20.98
2022-10-13T05:01:34.636Z,20.17
2022-10-13T05:04:03.528Z,20.02
2022-10-13T05:06:58.921Z,20.55
2022-10-13T05:09:27.756Z,18.80
2022-10-13T05:11:55.812Z,17.17
2022-10-13T05:14:23.698Z,18.17
2022-10-13T05:16:51.370Z,19.48
2022-10-13T05:19:20.838Z,17.45
2022-10-13T05:21:49.930Z,17.55
2022-10-13T05:24:17.993Z,15.32
2022-10-13T05:26:49.380Z,17.10
2022-10-13T05:29:18.464Z,15.32
2022-10-13T05:31:46.363Z,16.60
2022-10-13T05:34:14.448Z,16.60
2022-10-13T05:36:42.103Z,15.70
2022-10-13T05:39:10.230Z,15.73
2022-10-13T05:41:39.592Z,18.52
2022-10-13T05:44:17.696Z,18.85
2022-10-13T05:46:54.588Z,16.10
2022-10-13T05:49:22.675Z,16.70
2022-10-13T05:51:55.888Z,15.03
2022-10-13T05:54:31.614Z,15.52
2022-10-13T05:57:11.765Z,15.27
2022-10-13T05:59:46.491Z,15.20
2022-10-13T06:02:25.306Z,15.30
2022-10-13T06:04:57.962Z,16.40
2022-10-13T06:07:26.623Z,14.93
2022-10-13T06:09:58.612Z,14.88
2022-10-13T06:12:29.273Z,14.73
2022-10-13T06:14:58.260Z,15.20
2022-10-13T06:17:26.912Z,15.50
2022-10-13T06:19:54.801Z,15.05
2022-10-13T06:22:23.147Z,14.57
2022-10-13T06:24:51.246Z,14.73
2022-10-13T06:27:18.889Z,14.95
2022-10-13T06:29:48.102Z,14.37
2022-10-13T06:32:15.791Z,15.27
2022-10-13T06:34:43.515Z,15.63
2022-10-13T06:37:11.574Z,15.40
2022-10-13T06:39:40.216Z,16.48
2022-10-13T06:42:08.548Z,17.57
2022-10-13T06:44:39.165Z,15.73
2022-10-13T06:47:07.481Z,15.68
2022-10-13T06:49:35.120Z,16.92
2022-10-13T06:52:03.416Z,15.88
2022-10-13T06:54:31.197Z,15.87
2022-10-13T06:56:59.319Z,19.23
2022-10-13T06:59:28.159Z,19.05
2022-10-13T07:01:56.303Z,17.05
2022-10-13T07:04:24.413Z,14.38
2022-10-13T07:06:53.122Z,15.33
2022-10-13T07:09:20.906Z,14.65
2022-10-13T07:11:50.432Z,15.70
2022-10-13T07:14:18.303Z,18.42
2022-10-13T07:16:48.441Z,15.38
2022-10-13T07:19:16.528Z,16.17
2022-10-13T07:21:44.068Z,15.50
2022-10-13T07:24:12.492Z,17.40
2022-10-13T07:26:40.277Z,21.25
2022-10-13T07:29:08.395Z,16.40
2022-10-13T07:31:36.402Z,15.77
2022-10-13T07:34:05.271Z,43.78
2022-10-13T07:36:33.711Z,26.20
2022-10-13T07:39:06.413Z,15.65
2022-10-13T07:41:36.095Z,52.78
2022-10-13T07:44:04.133Z,21.97
2022-10-13T07:46:31.800Z,14.13
2022-10-13T07:48:59.730Z,10.07
2022-10-13T07:51:30.321Z,9.18
2022-10-13T07:53:58.477Z,7.68
2022-10-13T07:56:26.597Z,7.23
2022-10-13T07:58:54.290Z,26.20
2022-10-13T08:01:22.362Z,15.88
2022-10-13T08:03:50.615Z,13.45
2022-10-13T08:06:22.110Z,11.50
2022-10-13T08:08:54.964Z,18.23
2022-10-13T08:11:28.529Z,8.38
2022-10-13T08:14:04.067Z,7.43
2022-10-13T08:16:33.282Z,6.03
2022-10-13T08:19:00.939Z,6.15
2022-10-13T08:24:22.187Z,5.72
2022-10-13T08:26:56.855Z,6.43
2022-10-13T08:29:24.795Z,6.40
2022-10-13T08:31:53.904Z,6.28
2022-10-13T08:34:23.380Z,6.10
2022-10-13T08:36:54.791Z,6.35
2022-10-13T08:39:25.145Z,5.97
2022-10-13T08:41:54.940Z,7.00
2022-10-13T08:47:24.192Z,6.77
2022-10-13T08:49:57.762Z,6.90
2022-10-13T08:52:43.769Z,6.90
2022-10-13T08:55:47.651Z,6.00
2022-10-13T08:58:29.615Z,7.07
2022-10-13T09:01:09.449Z,7.30
2022-10-13T09:03:57.161Z,7.28
2022-10-13T09:06:41.271Z,7.22
2022-10-13T09:09:12.727Z,7.35
2022-10-13T09:11:47.707Z,7.03
2022-10-13T09:14:30.993Z,6.63
2022-10-13T09:17:22.751Z,6.90
2022-10-13T09:20:16.857Z,6.38
2022-10-13T09:22:46.049Z,5.90
2022-10-13T09:25:22.601Z,4.85
2022-10-13T09:27:59.778Z,4.90
2022-10-13T09:30:40.116Z,5.47
2022-10-13T09:33:14.793Z,5.35
2022-10-13T09:36:07.260Z,5.07
2022-10-13T09:38:35.392Z,5.13
2022-10-13T09:41:10.683Z,4.97
2022-10-13T09:43:58.384Z,4.80
2022-10-13T09:46:33.138Z,5.47
2022-10-13T09:49:21.537Z,5.05
2022-10-13T09:51:49.728Z,4.38
2022-10-13T09:54:50.322Z,4.63
2022-10-13T09:57:31.149Z,4.57
2022-10-13T10:00:18.376Z,4.97
2022-10-13T10:03:23.294Z,5.05
2022-10-13T10:06:02.108Z,4.40
2022-10-13T10:08:58.197Z,6.10
2022-10-13T10:11:35.570Z,5.82
2022-10-13T10:14:25.314Z,6.07
2022-10-13T10:17:07.476Z,5.70
2022-10-13T10:19:44.118Z,5.93
2022-10-13T10:22:23.968Z,6.97
2022-10-13T10:25:01.801Z,6.47
2022-10-13T10:27:43.684Z,5.72
2022-10-13T10:30:21.633Z,4.68
2022-10-13T10:33:20.977Z,6.43
2022-10-13T10:36:09.472Z,4.90
2022-10-13T10:38:50.960Z,5.40
2022-10-13T10:41:44.954Z,5.72
2022-10-13T10:44:33.358Z,5.20
2022-10-13T10:47:24.322Z,12.93
2022-10-13T10:50:00.497Z,7.07
2022-10-13T10:52:44.180Z,5.25
2022-10-13T10:55:24.005Z,6.40
2022-10-13T10:58:12.932Z,6.82
2022-10-13T11:01:12.144Z,5.10
2022-10-13T11:04:04.653Z,8.77
2022-10-13T11:06:34.381Z,5.38
2022-10-13T11:09:03.310Z,5.55
2022-10-13T11:11:37.263Z,4.65
2022-10-13T11:14:10.891Z,5.00
2022-10-13T11:16:38.678Z,5.03
2022-10-13T11:19:31.307Z,5.10
2022-10-13T11:21:59.107Z,4.97
2022-10-13T11:24:50.160Z,5.25
2022-10-13T11:27:40.116Z,5.40
2022-10-13T11:30:47.712Z,5.53
2022-10-13T11:33:35.094Z,5.45
2022-10-13T11:36:48.291Z,5.95
2022-10-13T11:39:28.579Z,7.15
2022-10-13T11:42:23.014Z,7.47
2022-10-13T11:44:57.309Z,8.03
2022-10-13T11:47:45.570Z,6.93
2022-10-13T11:50:42.294Z,5.72
2022-10-13T11:53:27.925Z,7.22
2022-10-13T11:55:58.117Z,8.60
2022-10-13T11:58:34.188Z,12.57
2022-10-13T12:01:08.225Z,8.55
2022-10-13T12:03:39.929Z,6.03
2022-10-13T12:06:21.984Z,5.70
2022-10-13T12:08:57.919Z,5.60
2022-10-13T12:11:35.882Z,5.53
2022-10-13T12:14:31.684Z,6.30
2022-10-13T12:17:01.766Z,5.30
2022-10-13T12:19:32.763Z,5.43
2022-10-13T12:22:02.140Z,6.35
2022-10-13T12:24:31.091Z,5.53
2022-10-13T12:26:59.820Z,6.03
2022-10-13T12:29:32.285Z,5.65
2022-10-13T12:32:03.114Z,5.65
2022-10-13T12:34:33.961Z,5.47
2022-10-13T12:37:05.101Z,5.57
2022-10-13T12:39:35.384Z,5.63
2022-10-13T12:42:06.780Z,5.68
2022-10-13T12:44:39.122Z,6.40
2022-10-13T12:47:59.207Z,7.68
2022-10-13T12:50:30.595Z,6.57
2022-10-13T12:53:13.371Z,6.78
2022-10-13T12:55:55.907Z,6.53
2022-10-13T12:58:43.699Z,5.30
2022-10-13T13:01:14.588Z,5.97
2022-10-13T13:03:44.466Z,5.57
2022-10-13T13:06:15.118Z,7.60
2022-10-13T13:08:43.627Z,9.05
2022-10-13T13:11:38.473Z,8.00
2022-10-13T13:14:39.825Z,6.13
2022-10-13T13:17:17.552Z,5.43
2022-10-13T13:19:56.346Z,5.95
2022-10-13T13:22:24.296Z,5.75
2022-10-13T13:24:52.994Z,5.50
2022-10-13T13:27:49.263Z,6.63
2022-10-13T13:30:20.595Z,4.77
2022-10-13T13:32:50.052Z,5.03
2022-10-13T13:35:18.012Z,5.40
2022-10-13T13:37:51.438Z,6.13
2022-10-13T13:40:24.909Z,6.03
2022-10-13T13:42:53.137Z,6.37
2022-10-13T13:45:23.327Z,4.82
2022-10-13T13:47:52.166Z,5.70
2022-10-13T13:50:24.853Z,5.28
2022-10-13T13:52:59.613Z,5.88
2022-10-13T13:55:29.891Z,5.43
2022-10-13T13:57:58.577Z,5.43
2022-10-13T14:00:26.379Z,6.05
2022-10-13T14:02:57.561Z,5.68
2022-10-13T14:05:25.935Z,5.18
2022-10-13T14:07:55.477Z,5.80
2022-10-13T14:10:23.925Z,5.32
2022-10-13T14:12:52.735Z,6.00
2022-10-13T14:15:21.685Z,5.28
2022-10-13T14:17:54.989Z,5.80
2022-10-13T14:20:23.226Z,5.97
2022-10-13T14:22:50.809Z,6.35
2022-10-13T14:25:19.940Z,6.28
2022-10-13T14:27:47.918Z,5.95
2022-10-13T14:30:15.658Z,6.50
2022-10-13T14:32:43.402Z,6.07
2022-10-13T14:35:11.699Z,6.30
2022-10-13T14:37:39.738Z,5.93
2022-10-13T14:40:08.101Z,6.53
2022-10-13T14:42:36.100Z,6.20
2022-10-13T14:45:06.841Z,6.27
2022-10-13T14:47:34.584Z,6.55
2022-10-13T14:50:02.617Z,6.22
2022-10-13T14:52:30.401Z,6.60
2022-10-13T14:54:58.192Z,6.50
2022-10-13T14:57:26.303Z,6.47
2022-10-13T14:59:56.855Z,6.40
2022-10-13T15:02:29.158Z,6.80
2022-10-13T15:04:58.173Z,7.13
2022-10-13T15:07:26.125Z,7.57
2022-10-13T15:10:05.094Z,7.50
2022-10-13T15:12:34.133Z,7.97
2022-10-13T15:15:02.288Z,8.50
2022-10-13T15:17:31.828Z,9.40
2022-10-13T15:20:00.129Z,14.85
2022-10-13T15:22:28.066Z,13.10
2022-10-13T15:24:55.854Z,13.70
2022-10-13T15:27:24.635Z,13.82
2022-10-13T15:29:52.291Z,10.45
2022-10-13T15:32:21.314Z,11.55
2022-10-13T15:34:56.163Z,12.97
2022-10-13T15:37:24.212Z,12.55
2022-10-13T15:39:56.232Z,15.52
2022-10-13T15:42:25.631Z,14.23
2022-10-13T15:45:10.319Z,14.52
2022-10-13T15:47:39.671Z,14.50
2022-10-13T15:50:08.705Z,15.98
2022-10-13T15:52:41.226Z,14.95
2022-10-13T15:55:11.567Z,14.32
2022-10-13T15:57:39.978Z,14.98
2022-10-13T16:00:08.971Z,14.97
2022-10-13T16:02:44.233Z,15.00
2022-10-13T16:05:13.805Z,15.27
2022-10-13T16:07:42.259Z,16.55
2022-10-13T16:10:12.707Z,16.65
2022-10-13T16:12:45.502Z,16.83
2022-10-13T16:15:17.946Z,15.68
2022-10-13T16:17:48.580Z,15.05
2022-10-13T16:20:16.734Z,14.35
2022-10-13T16:22:44.341Z,13.80
2022-10-13T16:25:12.725Z,13.87
2022-10-13T16:27:44.055Z,14.25
2022-10-13T16:30:13.294Z,13.75
2022-10-13T16:32:41.113Z,27.02
2022-10-13T16:35:09.282Z,27.15
2022-10-13T16:37:36.961Z,26.00
2022-10-13T16:40:05.317Z,26.45
2022-10-13T16:42:33.023Z,26.00
2022-10-13T16:45:01.254Z,25.70
2022-10-13T16:47:30.031Z,22.52
2022-10-13T16:49:58.174Z,26.53
2022-10-13T16:52:25.915Z,22.55
2022-10-13T16:54:53.918Z,22.48
2022-10-13T16:57:21.695Z,21.83
2022-10-13T16:59:50.269Z,21.00
2022-10-13T17:02:19.327Z,19.60
2022-10-13T17:04:47.087Z,17.08
2022-10-13T17:07:15.105Z,20.33
2022-10-13T17:09:43.211Z,20.55
2022-10-13T17:12:11.085Z,21.08
2022-10-13T17:14:39.026Z,16.23
2022-10-13T17:17:07.214Z,16.55
2022-10-13T17:19:35.039Z,13.77
2022-10-13T17:22:02.996Z,13.15
2022-10-13T17:24:30.993Z,13.88
2022-10-13T17:26:58.877Z,13.77
2022-10-13T17:29:26.643Z,12.88
2022-10-13T17:31:54.553Z,13.10
2022-10-13T17:34:23.188Z,13.27
2022-10-13T17:36:52.446Z,12.30
2022-10-13T17:39:20.324Z,14.23
2022-10-13T17:41:48.279Z,18.02
2022-10-13T17:44:20.705Z,16.50
2022-10-13T17:46:50.254Z,13.98
2022-10-13T17:49:18.345Z,12.40
2022-10-13T17:51:46.909Z,13.90
2022-10-13T17:54:16.580Z,13.27
2022-10-13T17:56:45.531Z,13.00
2022-10-13T17:59:17.812Z,15.52
2022-10-13T18:01:46.161Z,16.95
2022-10-13T18:04:17.969Z,16.20
2022-10-13T18:06:46.423Z,18.38
2022-10-13T18:09:20.781Z,17.60
2022-10-13T18:11:51.125Z,14.95
2022-10-13T18:14:21.088Z,14.85
2022-10-13T18:16:53.437Z,16.27
2022-10-13T18:19:22.158Z,14.25
2022-10-13T18:21:50.078Z,16.02
2022-10-13T18:24:18.000Z,16.98
2022-10-13T18:26:46.939Z,18.77
2022-10-13T18:29:15.035Z,16.63
2022-10-13T18:31:44.590Z,16.13
2022-10-13T18:34:15.406Z,16.08
2022-10-13T18:36:47.876Z,18.60
2022-10-13T18:39:17.440Z,17.67
2022-10-13T18:41:47.805Z,22.27
2022-10-13T18:44:16.462Z,26.20
2022-10-13T18:46:45.155Z,21.75
2022-10-13T18:49:14.688Z,20.13
2022-10-13T18:51:44.433Z,19.33
2022-10-13T18:54:12.361Z,16.50
2022-10-13T18:56:40.461Z,14.80
2022-10-13T18:59:13.986Z,17.42
2022-10-13T19:01:43.607Z,30.38
2022-10-13T19:04:15.079Z,25.58
2022-10-13T19:06:44.390Z,17.30
2022-10-13T19:09:14.918Z,16.25
2022-10-13T19:11:43.161Z,14.80
2022-10-13T19:14:13.624Z,15.20
2022-10-13T19:16:43.847Z,15.45
2022-10-13T19:19:12.169Z,14.53
2022-10-13T19:21:41.557Z,14.32
2022-10-13T19:24:10.985Z,14.70
2022-10-13T19:26:39.228Z,13.80
2022-10-13T19:29:18.242Z,13.95
2022-10-13T19:31:47.294Z,14.63
2022-10-13T19:34:16.023Z,15.55
2022-10-13T19:36:46.305Z,13.98
2022-10-13T19:39:17.740Z,12.50
2022-10-13T19:41:47.374Z,13.15
2022-10-13T19:44:17.603Z,11.97
2022-10-13T19:46:49.299Z,12.52
2022-10-13T19:49:20.276Z,16.00
2022-10-13T19:51:49.632Z,11.85
2022-10-13T19:54:19.595Z,11.55
2022-10-13T19:56:49.038Z,13.07
2022-10-13T19:59:17.870Z,13.48
2022-10-13T20:01:46.320Z,14.07
2022-10-13T20:04:19.461Z,14.68
2022-10-13T20:06:50.480Z,16.40
2022-10-13T20:09:19.760Z,14.10
2022-10-13T20:11:50.003Z,14.20
2022-10-13T20:14:19.346Z,16.95
2022-10-13T20:16:48.134Z,29.38
2022-10-13T20:19:20.089Z,20.35
2022-10-13T20:21:51.931Z,30.47
2022-10-13T20:24:22.139Z,30.23
2022-10-13T20:26:50.984Z,27.42
2022-10-13T20:29:22.859Z,30.08
2022-10-13T20:31:52.246Z,29.35
2022-10-13T20:34:19.930Z,22.77
2022-10-13T20:36:51.787Z,20.50
2022-10-13T20:39:21.091Z,16.42
2022-10-13T20:41:50.417Z,15.73
2022-10-13T20:44:20.405Z,22.58
2022-10-13T20:46:48.334Z,37.70
2022-10-13T20:49:16.892Z,19.88
2022-10-13T20:51:46.039Z,18.88
2022-10-13T20:54:15.446Z,19.05
2022-10-13T20:56:44.499Z,17.85
2022-10-13T20:59:17.365Z,16.73
2022-10-13T21:01:46.076Z,20.38
2022-10-13T21:04:14.643Z,17.02
2022-10-13T21:06:42.971Z,14.38
2022-10-13T21:09:11.326Z,14.35
2022-10-13T21:11:43.248Z,15.73
2022-10-13T21:14:11.084Z,15.02
2022-10-13T21:16:41.540Z,14.38
2022-10-13T21:19:10.150Z,14.05
2022-10-13T21:21:38.462Z,13.77
2022-10-13T21:24:07.990Z,13.50
2022-10-13T21:26:36.910Z,14.20
2022-10-13T21:29:05.522Z,13.63
2022-10-13T21:31:35.123Z,13.45
2022-10-13T21:34:03.591Z,14.27
2022-10-13T21:36:33.625Z,12.00
2022-10-13T21:39:04.913Z,12.35
2022-10-13T21:41:34.187Z,13.40
2022-10-13T21:44:02.579Z,11.32
2022-10-13T21:46:33.798Z,10.55
2022-10-13T21:49:04.299Z,11.60
2022-10-13T21:51:40.321Z,15.50
2022-10-13T21:54:11.502Z,17.05
2022-10-13T21:56:40.690Z,16.42
2022-10-13T21:59:10.427Z,16.55
2022-10-13T22:01:38.300Z,15.00
2022-10-13T22:04:12.078Z,12.95
2022-10-13T22:06:40.355Z,10.27
2022-10-13T22:09:07.967Z,10.70
2022-10-13T22:11:37.075Z,10.43
2022-10-13T22:14:11.836Z,11.33
2022-10-13T22:16:43.046Z,9.48
2022-10-13T22:19:11.068Z,10.10
2022-10-13T22:21:42.266Z,10.70
2022-10-13T22:24:13.568Z,12.13
2022-10-13T22:26:42.700Z,12.27
2022-10-13T22:29:13.651Z,12.70
2022-10-13T22:31:41.778Z,13.38
2022-10-13T22:34:11.760Z,12.85
2022-10-13T22:36:44.546Z,12.82
2022-10-13T22:39:14.563Z,13.03
2022-10-13T22:41:42.436Z,13.95
2022-10-13T22:44:10.777Z,15.15
2022-10-13T22:46:39.630Z,14.52
2022-10-13T22:49:13.701Z,13.80
2022-10-13T22:51:41.956Z,13.93
2022-10-13T22:54:10.054Z,13.90
2022-10-13T22:56:37.847Z,13.95
2022-10-13T22:59:08.358Z,14.70
2022-10-13T23:01:36.889Z,15.02
2022-10-13T23:04:04.977Z,13.90
2022-10-13T23:06:34.557Z,14.20
2022-10-13T23:09:05.381Z,13.88
2022-10-13T23:11:34.320Z,14.18
2022-10-13T23:14:04.185Z,12.68
2022-10-13T23:16:32.864Z,12.90
2022-10-13T23:19:01.090Z,13.02
2022-10-13T23:21:30.638Z,13.73
2022-10-13T23:24:01.323Z,14.75
2022-10-13T23:26:29.891Z,14.23
2022-10-13T23:28:58.726Z,13.37
2022-10-13T23:31:28.294Z,13.15
2022-10-13T23:33:56.786Z,13.80
2022-10-13T23:36:27.777Z,14.52
2022-10-13T23:39:06.547Z,14.73
2022-10-13T23:41:38.139Z,14.27
2022-10-13T23:44:06.193Z,13.00
2022-10-13T23:46:33.963Z,13.57
2022-10-13T23:49:02.105Z,13.25
2022-10-13T23:51:30.056Z,13.70
2022-10-13T23:53:59.372Z,14.53
2022-10-13T23:56:27.968Z,13.88
2022-10-13T23:58:55.690Z,14.07
